createdAt,value
2023-02-24T00:02:47.078Z,4.85
2023-02-24T00:07:48.990Z,4.88
2023-02-24T00:12:50.746Z,3.90
2023-02-24T00:17:52.486Z,3.90
2023-02-24T00:22:54.264Z,4.03
2023-02-24T00:27:56.073Z,4.60
2023-02-24T00:33:01.434Z,3.83
2023-02-24T00:38:03.321Z,3.70
2023-02-24T00:43:05.653Z,4.18
2023-02-24T00:48:10.713Z,4.13
2023-02-24T00:53:12.557Z,3.33
2023-02-24T00:58:14.580Z,3.85
2023-02-24T01:03:16.445Z,3.05
2023-02-24T01:08:21.601Z,3.25
2023-02-24T01:13:23.348Z,3.50
2023-02-24T01:18:25.188Z,4.00
2023-02-24T01:23:26.987Z,4.60
2023-02-24T01:28:28.925Z,4.70
2023-02-24T01:33:33.790Z,4.13
2023-02-24T01:38:37.055Z,3.28
2023-02-24T01:44:01.887Z,3.00
2023-02-24T01:49:17.666Z,4.15
2023-02-24T01:54:23.522Z,4.03
2023-02-24T01:59:30.173Z,5.38
2023-02-24T02:04:50.571Z,4.07
2023-02-24T02:09:55.484Z,4.22
2023-02-24T02:14:59.447Z,3.53
2023-02-24T02:20:25.601Z,4.32
2023-02-24T02:26:18.819Z,4.63
2023-02-24T02:31:50.856Z,3.97
2023-02-24T02:37:00.785Z,3.40
2023-02-24T02:42:14.242Z,4.53
2023-02-24T02:47:41.300Z,3.72
2023-02-24T02:52:56.560Z,5.13
2023-02-24T02:58:00.875Z,3.97
2023-02-24T03:03:13.543Z,3.95
2023-02-24T03:08:21.345Z,3.33
2023-02-24T03:13:30.306Z,4.30
2023-02-24T03:18:40.463Z,3.13
2023-02-24T03:23:50.154Z,6.85
2023-02-24T03:29:11.596Z,2.97
2023-02-24T03:34:44.211Z,3.45
2023-02-24T03:39:47.703Z,2.92
2023-02-24T03:44:49.949Z,2.88
2023-02-24T03:49:52.167Z,4.10
2023-02-24T03:55:12.472Z,3.35
2023-02-24T04:00:25.917Z,2.38
2023-02-24T04:05:29.980Z,3.58
2023-02-24T04:10:52.422Z,3.90
2023-02-24T04:16:01.720Z,3.53
2023-02-24T04:21:05.513Z,2.95
2023-02-24T04:26:12.636Z,3.30
2023-02-24T04:31:18.358Z,3.33
2023-02-24T04:36:22.135Z,2.88
2023-02-24T04:41:24.758Z,4.07
2023-02-24T04:46:26.550Z,2.97
2023-02-24T04:51:32.068Z,3.33
2023-02-24T04:56:33.850Z,3.83
2023-02-24T05:01:36.171Z,3.53
2023-02-24T05:06:44.266Z,2.75
2023-02-24T05:11:52.524Z,3.35
2023-02-24T05:17:00.516Z,2.33
2023-02-24T05:22:03.370Z,3.30
2023-02-24T05:27:05.171Z,3.13
2023-02-24T05:32:08.403Z,3.70
2023-02-24T05:37:10.655Z,3.45
2023-02-24T05:42:12.920Z,3.17
2023-02-24T05:47:16.659Z,2.75
2023-02-24T05:52:18.572Z,3.65
2023-02-24T05:57:21.345Z,3.03
2023-02-24T06:02:27.783Z,3.25
2023-02-24T06:07:34.556Z,3.60
2023-02-24T06:12:39.867Z,3.70
2023-02-24T06:17:41.657Z,3.60
2023-02-24T06:22:43.684Z,2.83
2023-02-24T06:27:45.556Z,3.17
2023-02-24T06:32:47.432Z,3.65
2023-02-24T06:37:50.543Z,3.65
2023-02-24T06:42:54.211Z,3.28
2023-02-24T06:47:56.023Z,3.03
2023-02-24T06:53:00.946Z,4.60
2023-02-24T06:58:05.865Z,2.88
2023-02-24T07:03:16.066Z,3.90
2023-02-24T07:08:21.099Z,6.22
2023-02-24T07:13:24.806Z,7.18
2023-02-24T07:18:26.687Z,6.20
2023-02-24T07:23:29.619Z,4.82
2023-02-24T07:28:31.967Z,3.88
2023-02-24T07:33:34.713Z,3.47
2023-02-24T07:38:40.923Z,4.70
2023-02-24T07:43:44.151Z,4.50
2023-02-24T07:48:46.480Z,4.10
2023-02-24T07:54:03.567Z,4.40
2023-02-24T07:59:08.027Z,3.50
2023-02-24T08:04:12.709Z,3.58
2023-02-24T08:09:43.142Z,4.13
2023-02-24T08:14:53.006Z,3.42
2023-02-24T08:20:13.738Z,3.73
2023-02-24T08:30:23.703Z,3.95
2023-02-24T08:35:35.839Z,3.47
2023-02-24T08:40:50.049Z,4.40
2023-02-24T08:46:00.847Z,4.78
2023-02-24T08:51:06.380Z,4.40
2023-02-24T08:56:11.846Z,5.03
2023-02-24T09:01:20.516Z,3.85
2023-02-24T09:06:51.247Z,4.40
2023-02-24T09:11:58.500Z,3.70
2023-02-24T09:17:03.064Z,4.03
2023-02-24T09:22:23.622Z,3.60
2023-02-24T09:27:29.280Z,1.95
2023-02-24T09:32:31.179Z,2.63
2023-02-24T09:37:32.981Z,1.88
2023-02-24T09:42:46.425Z,1.70
2023-02-24T09:47:57.141Z,1.98
2023-02-24T09:53:13.986Z,2.70
2023-02-24T09:58:48.951Z,1.83
2023-02-24T10:04:18.553Z,2.33
2023-02-24T10:09:50.347Z,2.65
2023-02-24T10:15:19.225Z,1.90
2023-02-24T10:20:45.652Z,2.63
2023-02-24T10:26:07.456Z,2.53
2023-02-24T10:31:27.033Z,2.50
2023-02-24T10:36:35.528Z,3.17
2023-02-24T10:41:45.869Z,2.78
2023-02-24T10:46:48.254Z,2.50
2023-02-24T10:51:53.412Z,3.42
2023-02-24T10:57:00.972Z,3.13
2023-02-24T11:02:29.371Z,2.65
2023-02-24T11:07:53.635Z,2.20
2023-02-24T11:13:15.597Z,3.03
2023-02-24T11:18:23.215Z,3.15
2023-02-24T11:23:33.032Z,3.20
2023-02-24T11:29:04.167Z,3.67
2023-02-24T11:34:36.677Z,3.25
2023-02-24T11:39:53.120Z,2.53
2023-02-24T11:45:02.652Z,2.65
2023-02-24T11:50:32.467Z,2.95
2023-02-24T11:55:42.559Z,2.72
2023-02-24T12:00:57.935Z,2.10
2023-02-24T12:06:14.280Z,2.65
2023-02-24T12:11:38.749Z,2.58
2023-02-24T12:16:46.063Z,2.75
2023-02-24T12:21:56.095Z,2.47
2023-02-24T12:27:01.294Z,2.70
2023-02-24T12:32:36.158Z,3.15
2023-02-24T12:37:59.970Z,2.08
2023-02-24T12:43:38.772Z,3.47
2023-02-24T12:48:55.829Z,3.05
2023-02-24T12:54:16.499Z,2.75
2023-02-24T12:59:25.771Z,2.67
2023-02-24T13:04:33.143Z,3.08
2023-02-24T13:09:41.393Z,2.95
2023-02-24T13:14:44.334Z,3.20
2023-02-24T13:19:46.990Z,3.45
2023-02-24T13:24:54.800Z,3.58
2023-02-24T13:30:00.880Z,3.38
2023-02-24T13:35:25.744Z,3.17
2023-02-24T13:40:28.199Z,3.78
2023-02-24T13:45:39.811Z,3.72
2023-02-24T13:51:18.720Z,3.20
2023-02-24T13:56:34.136Z,4.22
2023-02-24T14:01:51.993Z,4.40
2023-02-24T14:06:57.937Z,4.75
2023-02-24T14:12:29.312Z,5.15
2023-02-24T14:17:35.944Z,4.28
2023-02-24T14:22:45.833Z,5.15
2023-02-24T14:27:51.569Z,4.10
2023-02-24T14:32:54.082Z,5.28
2023-02-24T14:37:56.069Z,6.75
2023-02-24T14:42:57.926Z,6.05
2023-02-24T14:47:59.654Z,6.72
2023-02-24T14:53:13.821Z,7.35
2023-02-24T14:58:27.651Z,7.03
2023-02-24T15:03:47.562Z,6.47
2023-02-24T15:08:55.548Z,7.80
2023-02-24T15:14:03.218Z,7.32
2023-02-24T15:19:05.110Z,6.95
2023-02-24T15:24:30.894Z,7.53
2023-02-24T15:29:32.628Z,7.30
2023-02-24T15:34:36.440Z,8.55
2023-02-24T15:39:41.551Z,7.45
2023-02-24T15:44:57.615Z,8.77
2023-02-24T15:49:59.563Z,11.40
2023-02-24T15:55:02.569Z,12.25
2023-02-24T16:00:13.254Z,11.50
2023-02-24T16:10:27.913Z,10.45
2023-02-24T16:15:33.219Z,11.18
2023-02-24T16:20:39.677Z,11.25
2023-02-24T16:25:44.339Z,12.15
2023-02-24T16:30:47.280Z,11.18
2023-02-24T16:35:54.592Z,11.70
2023-02-24T16:40:56.475Z,13.02
2023-02-24T16:46:04.015Z,11.93
2023-02-24T16:51:07.280Z,13.77
2023-02-24T16:56:09.877Z,12.65
2023-02-24T17:01:19.022Z,10.27
2023-02-24T17:06:22.409Z,10.45
2023-02-24T17:11:28.034Z,9.57
2023-02-24T17:16:30.074Z,8.35
2023-02-24T17:21:31.908Z,7.85
2023-02-24T17:26:33.791Z,6.43
2023-02-24T17:31:35.801Z,5.97
2023-02-24T17:36:37.655Z,5.70
2023-02-24T17:41:39.411Z,4.82
2023-02-24T17:46:41.242Z,5.15
2023-02-24T17:51:43.291Z,4.38
2023-02-24T17:56:45.040Z,4.32
2023-02-24T18:01:46.816Z,2.97
2023-02-24T18:06:48.628Z,4.07
2023-02-24T18:11:50.724Z,3.60
2023-02-24T18:16:52.569Z,3.80
2023-02-24T18:21:54.325Z,2.90
2023-02-24T18:26:56.139Z,3.90
2023-02-24T18:31:58.202Z,2.90
2023-02-24T18:37:00.830Z,11.32
2023-02-24T18:42:02.682Z,7.15
2023-02-24T18:47:09.461Z,6.93
2023-02-24T18:52:12.992Z,5.00
2023-02-24T18:57:14.962Z,6.43
2023-02-24T19:02:17.275Z,5.22
2023-02-24T19:07:19.510Z,4.63
2023-02-24T19:12:21.726Z,4.43
2023-02-24T19:17:23.568Z,8.52
2023-02-24T19:22:25.332Z,10.52
2023-02-24T19:27:28.601Z,7.82
2023-02-24T19:32:30.639Z,9.32
2023-02-24T19:37:32.991Z,5.70
2023-02-24T19:42:34.944Z,5.03
2023-02-24T19:47:36.835Z,4.43
2023-02-24T19:52:38.608Z,3.80
2023-02-24T19:57:40.417Z,3.78
2023-02-24T20:02:42.180Z,4.10
2023-02-24T20:07:44.338Z,0.10
2023-02-24T20:12:46.138Z,12.57
2023-02-24T20:17:49.841Z,9.93
2023-02-24T20:22:51.693Z,5.13
2023-02-24T20:27:53.617Z,7.45
2023-02-24T20:32:55.424Z,5.32
2023-02-24T20:37:57.208Z,4.40
2023-02-24T20:42:59.005Z,6.07
2023-02-24T20:48:01.925Z,4.28
2023-02-24T20:53:04.258Z,14.23
2023-02-24T20:58:06.072Z,14.40
2023-02-24T21:03:11.940Z,4.75
2023-02-24T21:08:13.913Z,3.67
2023-02-24T21:13:16.251Z,3.30
2023-02-24T21:18:19.137Z,3.97
2023-02-24T21:23:21.836Z,3.88
2023-02-24T21:28:24.028Z,3.05
2023-02-24T21:33:26.114Z,3.53
2023-02-24T21:38:28.449Z,3.10
2023-02-24T21:43:30.569Z,3.05
2023-02-24T21:48:33.205Z,2.45
2023-02-24T21:53:39.117Z,1.77
2023-02-24T21:58:40.978Z,2.55
2023-02-24T22:03:43.274Z,2.20
2023-02-24T22:08:45.680Z,2.38
2023-02-24T22:13:48.306Z,2.03
2023-02-24T22:18:51.255Z,2.80
2023-02-24T22:23:56.206Z,2.85
2023-02-24T22:28:58.832Z,2.75
2023-02-24T22:34:01.074Z,2.60
2023-02-24T22:39:04.675Z,2.92
2023-02-24T22:44:07.023Z,3.03
2023-02-24T22:49:09.158Z,3.25
2023-02-24T22:54:11.440Z,3.40
2023-02-24T22:59:14.006Z,4.20
2023-02-24T23:04:17.107Z,3.65
2023-02-24T23:09:20.107Z,4.00
2023-02-24T23:14:22.160Z,3.25
2023-02-24T23:19:24.122Z,4.00
2023-02-24T23:24:25.910Z,3.33
2023-02-24T23:29:27.809Z,3.47
2023-02-24T23:34:29.678Z,3.45
2023-02-24T23:39:31.496Z,3.35
2023-02-24T23:44:37.511Z,3.38
2023-02-24T23:49:48.188Z,3.97
2023-02-24T23:54:52.896Z,3.95
2023-02-24T23:59:55.322Z,3.47
